Sunday, May 27, 2018, 1:29 PM GMT
Back to Local

CWJB, Ste Foy CS , Que.

Location: , , Canada Lat: 47.3
Local Time: 1:29 PM GMT (13:29 GMT) Lon: -71.267
Time Zone: GMT Elev: 298 ft

Show me the last for .
Show Coded

Time T Td Feel RH Dir Speed Gust Alt SLP Vis Weather Sky Remarks
2018-05-27 13:00 58 - - 0 50° 9 17 - - 0 None
2018-05-27 12:00 55 - - 0 50° 12 - - - 0 None
2018-05-27 11:00 52 - - 0 50° 12 17 - - 0 None
2018-05-27 10:00 51 - - 0 60° 8 - - - 0 None
2018-05-27 09:00 50 - - 0 60° 8 - - - 0 None
2018-05-27 08:00 50 - - 0 70° 7 - - - 0 None
2018-05-27 07:00 52 - - 0 80° 8 - - - 0 None
2018-05-27 06:00 53 - - 0 60° 8 - - - 0 None
2018-05-27 05:00 53 - - 0 60° 9 17 - - 0 Peak wind: 19 mph (17 kts) from 70° at 02 min
2018-05-27 04:00 54 - - 0 60° 12 18 - - 0 None
2018-05-27 03:00 56 - - 0 70° 12 17 - - 0 None
2018-05-27 02:00 56 - - 0 70° 9 - - - 0 None
2018-05-27 01:00 58 - - 0 60° 8 - - - 0 None
2018-05-27 00:00 56 - - 0 70° 8 - - - 0 None
2018-05-26 23:00 61 - - 0 80° 9 - - - 0 None
2018-05-26 22:00 61 - - 0 80° 12 17 - - 0 None
2018-05-26 21:00 62 - - 0 50° 9 - - - 0 None
2018-05-26 20:00 65 - - 0 60° 9 - - - 0 None
2018-05-26 19:00 64 - - 0 60° 7 - - - 0 None
2018-05-26 18:00 62 - - 0 70° 7 - - - 0 None
2018-05-26 17:00 60 - - 0 100° 7 - - - 0 1-hr Precip Total: 0.05"
2018-05-26 16:00 57 - - 0 20° 5 - - - 0 None
2018-05-26 15:00 54 - - 0 70° 7 - - - 0 None
2018-05-26 14:00 52 - - 0 90° 8 - - - 0 None

Support USWX by starting your Amazon purchase here.